sensor_id;sensor_type;location;lat;lon;timestamp;P1;durP1;ratioP1;P2;durP2;ratioP2
25936;SDS011;13733;51.178;4.450;2023-04-15T00:01:25;8.40;;;4.07;;
25936;SDS011;13733;51.178;4.450;2023-04-15T00:03:51;7.65;;;4.03;;
25936;SDS011;13733;51.178;4.450;2023-04-15T00:06:19;9.68;;;4.30;;
25936;SDS011;13733;51.178;4.450;2023-04-15T00:08:48;7.88;;;4.18;;
25936;SDS011;13733;51.178;4.450;2023-04-15T00:11:15;9.85;;;4.47;;
25936;SDS011;13733;51.178;4.450;2023-04-15T00:13:41;7.25;;;4.40;;
25936;SDS011;13733;51.178;4.450;2023-04-15T00:16:07;10.68;;;4.05;;
25936;SDS011;13733;51.178;4.450;2023-04-15T00:18:34;9.40;;;4.18;;
25936;SDS011;13733;51.178;4.450;2023-04-15T00:20:59;9.25;;;4.43;;
25936;SDS011;13733;51.178;4.450;2023-04-15T00:23:26;8.93;;;4.57;;
25936;SDS011;13733;51.178;4.450;2023-04-15T00:25:52;10.63;;;5.07;;
25936;SDS011;13733;51.178;4.450;2023-04-15T00:28:18;7.30;;;4.30;;
25936;SDS011;13733;51.178;4.450;2023-04-15T00:30:44;9.38;;;4.10;;
25936;SDS011;13733;51.178;4.450;2023-04-15T00:33:12;8.75;;;4.55;;
25936;SDS011;13733;51.178;4.450;2023-04-15T00:35:38;6.53;;;4.15;;
25936;SDS011;13733;51.178;4.450;2023-04-15T00:38:05;8.55;;;4.60;;
25936;SDS011;13733;51.178;4.450;2023-04-15T00:40:32;8.60;;;4.43;;
25936;SDS011;13733;51.178;4.450;2023-04-15T00:42:58;9.98;;;4.30;;
25936;SDS011;13733;51.178;4.450;2023-04-15T00:45:24;9.82;;;4.50;;
25936;SDS011;13733;51.178;4.450;2023-04-15T00:47:51;8.93;;;4.45;;
25936;SDS011;13733;51.178;4.450;2023-04-15T00:50:17;11.45;;;4.47;;
25936;SDS011;13733;51.178;4.450;2023-04-15T00:52:43;8.25;;;4.38;;
25936;SDS011;13733;51.178;4.450;2023-04-15T00:55:09;7.38;;;4.28;;
25936;SDS011;13733;51.178;4.450;2023-04-15T00:57:35;8.80;;;4.18;;
25936;SDS011;13733;51.178;4.450;2023-04-15T01:00:01;13.88;;;4.82;;
25936;SDS011;13733;51.178;4.450;2023-04-15T01:02:28;6.07;;;3.70;;
25936;SDS011;13733;51.178;4.450;2023-04-15T01:04:56;9.20;;;4.35;;
25936;SDS011;13733;51.178;4.450;2023-04-15T01:07:21;10.38;;;4.88;;
25936;SDS011;13733;51.178;4.450;2023-04-15T01:09:47;9.48;;;4.82;;
25936;SDS011;13733;51.178;4.450;2023-04-15T01:12:13;9.02;;;4.75;;
25936;SDS011;13733;51.178;4.450;2023-04-15T01:14:40;8.82;;;4.40;;
25936;SDS011;13733;51.178;4.450;2023-04-15T01:17:07;14.05;;;5.40;;
25936;SDS011;13733;51.178;4.450;2023-04-15T01:19:33;9.77;;;4.90;;
25936;SDS011;13733;51.178;4.450;2023-04-15T01:22:01;8.93;;;5.20;;
25936;SDS011;13733;51.178;4.450;2023-04-15T01:24:28;8.23;;;4.93;;
25936;SDS011;13733;51.178;4.450;2023-04-15T01:26:55;10.23;;;4.65;;
25936;SDS011;13733;51.178;4.450;2023-04-15T01:29:22;8.68;;;4.47;;
25936;SDS011;13733;51.178;4.450;2023-04-15T01:31:52;9.40;;;5.00;;
25936;SDS011;13733;51.178;4.450;2023-04-15T01:34:20;6.13;;;4.50;;
25936;SDS011;13733;51.178;4.450;2023-04-15T01:36:46;9.30;;;5.10;;
25936;SDS011;13733;51.178;4.450;2023-04-15T01:39:13;9.60;;;4.85;;
25936;SDS011;13733;51.178;4.450;2023-04-15T01:41:39;7.85;;;4.95;;
25936;SDS011;13733;51.178;4.450;2023-04-15T01:44:06;12.35;;;4.85;;
25936;SDS011;13733;51.178;4.450;2023-04-15T01:46:32;11.45;;;4.78;;
25936;SDS011;13733;51.178;4.450;2023-04-15T01:48:59;9.70;;;4.75;;
25936;SDS011;13733;51.178;4.450;2023-04-15T01:51:26;10.70;;;5.30;;
25936;SDS011;13733;51.178;4.450;2023-04-15T01:53:52;9.70;;;4.47;;
25936;SDS011;13733;51.178;4.450;2023-04-15T01:56:22;11.17;;;5.20;;
25936;SDS011;13733;51.178;4.450;2023-04-15T01:58:51;11.73;;;5.00;;
25936;SDS011;13733;51.178;4.450;2023-04-15T02:01:17;8.45;;;4.80;;
25936;SDS011;13733;51.178;4.450;2023-04-15T02:03:46;8.73;;;5.20;;
25936;SDS011;13733;51.178;4.450;2023-04-15T02:06:13;10.38;;;4.88;;
25936;SDS011;13733;51.178;4.450;2023-04-15T02:08:39;7.35;;;4.32;;
25936;SDS011;13733;51.178;4.450;2023-04-15T02:11:06;8.60;;;4.80;;
25936;SDS011;13733;51.178;4.450;2023-04-15T02:13:32;10.43;;;5.15;;
25936;SDS011;13733;51.178;4.450;2023-04-15T02:15:58;10.85;;;5.10;;
25936;SDS011;13733;51.178;4.450;2023-04-15T02:18:24;8.95;;;4.68;;
25936;SDS011;13733;51.178;4.450;2023-04-15T02:20:51;11.98;;;5.15;;
25936;SDS011;13733;51.178;4.450;2023-04-15T02:23:16;10.52;;;5.00;;
25936;SDS011;13733;51.178;4.450;2023-04-15T02:25:42;12.65;;;5.20;;
25936;SDS011;13733;51.178;4.450;2023-04-15T02:28:08;12.80;;;4.60;;
25936;SDS011;13733;51.178;4.450;2023-04-15T02:30:34;8.77;;;4.50;;
25936;SDS011;13733;51.178;4.450;2023-04-15T02:33:01;10.90;;;4.32;;
25936;SDS011;13733;51.178;4.450;2023-04-15T02:35:27;10.85;;;4.97;;
25936;SDS011;13733;51.178;4.450;2023-04-15T02:37:53;7.78;;;4.57;;
25936;SDS011;13733;51.178;4.450;2023-04-15T02:40:19;8.13;;;4.75;;
25936;SDS011;13733;51.178;4.450;2023-04-15T02:42:45;7.38;;;4.00;;
25936;SDS011;13733;51.178;4.450;2023-04-15T02:45:14;10.88;;;4.43;;
25936;SDS011;13733;51.178;4.450;2023-04-15T02:47:41;8.48;;;4.68;;
25936;SDS011;13733;51.178;4.450;2023-04-15T02:50:10;10.57;;;4.40;;
25936;SDS011;13733;51.178;4.450;2023-04-15T02:52:38;9.18;;;4.45;;
25936;SDS011;13733;51.178;4.450;2023-04-15T02:55:05;13.30;;;4.30;;
25936;SDS011;13733;51.178;4.450;2023-04-15T02:57:32;11.63;;;4.60;;
25936;SDS011;13733;51.178;4.450;2023-04-15T03:00:04;9.70;;;4.80;;
25936;SDS011;13733;51.178;4.450;2023-04-15T03:02:35;10.55;;;4.88;;
25936;SDS011;13733;51.178;4.450;2023-04-15T03:05:02;10.02;;;4.53;;
25936;SDS011;13733;51.178;4.450;2023-04-15T03:07:30;10.45;;;4.95;;
25936;SDS011;13733;51.178;4.450;2023-04-15T03:09:57;8.07;;;4.93;;
25936;SDS011;13733;51.178;4.450;2023-04-15T03:12:22;11.18;;;4.82;;
25936;SDS011;13733;51.178;4.450;2023-04-15T03:14:52;10.02;;;4.57;;
25936;SDS011;13733;51.178;4.450;2023-04-15T03:17:23;9.57;;;4.78;;
25936;SDS011;13733;51.178;4.450;2023-04-15T03:19:49;10.52;;;4.57;;
25936;SDS011;13733;51.178;4.450;2023-04-15T03:22:15;12.30;;;4.85;;
25936;SDS011;13733;51.178;4.450;2023-04-15T03:24:41;7.93;;;4.53;;
25936;SDS011;13733;51.178;4.450;2023-04-15T03:27:07;10.53;;;4.70;;
25936;SDS011;13733;51.178;4.450;2023-04-15T03:29:34;9.95;;;4.72;;
25936;SDS011;13733;51.178;4.450;2023-04-15T03:32:00;8.60;;;4.57;;
25936;SDS011;13733;51.178;4.450;2023-04-15T03:34:29;12.70;;;4.78;;
25936;SDS011;13733;51.178;4.450;2023-04-15T03:36:57;10.07;;;5.00;;
25936;SDS011;13733;51.178;4.450;2023-04-15T03:39:23;7.85;;;4.78;;
25936;SDS011;13733;51.178;4.450;2023-04-15T03:41:49;11.27;;;5.40;;
25936;SDS011;13733;51.178;4.450;2023-04-15T03:44:15;11.38;;;5.00;;
25936;SDS011;13733;51.178;4.450;2023-04-15T03:46:41;7.40;;;4.90;;
25936;SDS011;13733;51.178;4.450;2023-04-15T03:49:07;11.45;;;4.97;;
25936;SDS011;13733;51.178;4.450;2023-04-15T03:51:33;9.80;;;4.82;;
25936;SDS011;13733;51.178;4.450;2023-04-15T03:53:58;13.10;;;4.78;;
25936;SDS011;13733;51.178;4.450;2023-04-15T03:56:24;9.25;;;4.95;;
25936;SDS011;13733;51.178;4.450;2023-04-15T03:58:50;9.40;;;4.40;;
25936;SDS011;13733;51.178;4.450;2023-04-15T04:01:16;11.50;;;5.20;;
25936;SDS011;13733;51.178;4.450;2023-04-15T04:03:41;12.55;;;4.82;;
25936;SDS011;13733;51.178;4.450;2023-04-15T04:06:07;12.95;;;4.72;;
25936;SDS011;13733;51.178;4.450;2023-04-15T04:08:33;8.15;;;4.50;;
25936;SDS011;13733;51.178;4.450;2023-04-15T04:10:58;10.20;;;4.72;;
25936;SDS011;13733;51.178;4.450;2023-04-15T04:13:25;8.60;;;4.75;;
25936;SDS011;13733;51.178;4.450;2023-04-15T04:15:50;11.10;;;4.93;;
25936;SDS011;13733;51.178;4.450;2023-04-15T04:18:16;11.13;;;5.25;;
25936;SDS011;13733;51.178;4.450;2023-04-15T04:20:42;8.93;;;5.15;;
25936;SDS011;13733;51.178;4.450;2023-04-15T04:23:07;12.43;;;5.00;;
25936;SDS011;13733;51.178;4.450;2023-04-15T04:25:33;10.18;;;5.28;;
25936;SDS011;13733;51.178;4.450;2023-04-15T04:27:59;11.38;;;5.45;;
25936;SDS011;13733;51.178;4.450;2023-04-15T04:30:25;10.52;;;5.68;;
25936;SDS011;13733;51.178;4.450;2023-04-15T04:32:50;10.88;;;5.03;;
25936;SDS011;13733;51.178;4.450;2023-04-15T04:35:16;12.10;;;6.22;;
25936;SDS011;13733;51.178;4.450;2023-04-15T04:37:42;13.48;;;5.63;;
25936;SDS011;13733;51.178;4.450;2023-04-15T04:40:07;10.63;;;5.78;;
25936;SDS011;13733;51.178;4.450;2023-04-15T04:42:35;13.20;;;5.80;;
25936;SDS011;13733;51.178;4.450;2023-04-15T04:45:01;9.82;;;5.57;;
25936;SDS011;13733;51.178;4.450;2023-04-15T04:47:27;16.45;;;5.88;;
25936;SDS011;13733;51.178;4.450;2023-04-15T04:49:52;10.27;;;5.82;;
25936;SDS011;13733;51.178;4.450;2023-04-15T04:52:18;8.52;;;5.68;;
25936;SDS011;13733;51.178;4.450;2023-04-15T04:54:44;12.93;;;5.88;;
25936;SDS011;13733;51.178;4.450;2023-04-15T04:57:10;14.00;;;6.43;;
25936;SDS011;13733;51.178;4.450;2023-04-15T04:59:37;12.35;;;6.18;;
25936;SDS011;13733;51.178;4.450;2023-04-15T05:02:04;12.68;;;5.78;;
25936;SDS011;13733;51.178;4.450;2023-04-15T05:04:30;12.68;;;6.00;;
25936;SDS011;13733;51.178;4.450;2023-04-15T05:06:57;9.43;;;5.60;;
25936;SDS011;13733;51.178;4.450;2023-04-15T05:09:23;15.02;;;5.95;;
25936;SDS011;13733;51.178;4.450;2023-04-15T05:11:49;10.27;;;6.20;;
25936;SDS011;13733;51.178;4.450;2023-04-15T05:14:15;12.70;;;6.20;;
25936;SDS011;13733;51.178;4.450;2023-04-15T05:16:40;9.70;;;5.68;;
25936;SDS011;13733;51.178;4.450;2023-04-15T05:19:06;16.48;;;6.38;;
25936;SDS011;13733;51.178;4.450;2023-04-15T05:21:32;12.10;;;5.75;;
25936;SDS011;13733;51.178;4.450;2023-04-15T05:23:58;12.18;;;6.45;;
25936;SDS011;13733;51.178;4.450;2023-04-15T05:26:23;10.70;;;6.10;;
25936;SDS011;13733;51.178;4.450;2023-04-15T05:28:49;12.05;;;6.40;;
25936;SDS011;13733;51.178;4.450;2023-04-15T05:31:15;12.05;;;6.50;;
25936;SDS011;13733;51.178;4.450;2023-04-15T05:33:41;12.30;;;6.68;;
25936;SDS011;13733;51.178;4.450;2023-04-15T05:36:06;12.05;;;6.55;;
25936;SDS011;13733;51.178;4.450;2023-04-15T05:38:32;15.98;;;7.68;;
25936;SDS011;13733;51.178;4.450;2023-04-15T05:40:58;16.90;;;7.30;;
25936;SDS011;13733;51.178;4.450;2023-04-15T05:43:24;11.27;;;6.63;;
25936;SDS011;13733;51.178;4.450;2023-04-15T05:45:50;12.10;;;6.78;;
25936;SDS011;13733;51.178;4.450;2023-04-15T05:48:16;14.52;;;7.53;;
25936;SDS011;13733;51.178;4.450;2023-04-15T05:50:41;11.02;;;7.30;;
25936;SDS011;13733;51.178;4.450;2023-04-15T05:53:07;17.08;;;7.65;;
25936;SDS011;13733;51.178;4.450;2023-04-15T05:55:36;17.67;;;8.07;;
25936;SDS011;13733;51.178;4.450;2023-04-15T05:58:03;13.48;;;7.53;;
25936;SDS011;13733;51.178;4.450;2023-04-15T06:00:28;15.70;;;7.85;;
25936;SDS011;13733;51.178;4.450;2023-04-15T06:02:55;14.40;;;8.00;;
25936;SDS011;13733;51.178;4.450;2023-04-15T06:05:22;13.23;;;9.15;;
25936;SDS011;13733;51.178;4.450;2023-04-15T06:07:49;14.60;;;8.02;;
25936;SDS011;13733;51.178;4.450;2023-04-15T06:10:15;14.27;;;9.38;;
25936;SDS011;13733;51.178;4.450;2023-04-15T06:12:41;17.45;;;9.85;;
25936;SDS011;13733;51.178;4.450;2023-04-15T06:15:07;15.82;;;9.45;;
25936;SDS011;13733;51.178;4.450;2023-04-15T06:17:34;19.77;;;9.75;;
25936;SDS011;13733;51.178;4.450;2023-04-15T06:20:01;19.15;;;10.68;;
25936;SDS011;13733;51.178;4.450;2023-04-15T06:22:27;18.42;;;10.45;;
25936;SDS011;13733;51.178;4.450;2023-04-15T06:24:52;18.00;;;10.98;;
25936;SDS011;13733;51.178;4.450;2023-04-15T06:27:19;19.77;;;11.27;;
25936;SDS011;13733;51.178;4.450;2023-04-15T06:29:44;14.15;;;10.90;;
25936;SDS011;13733;51.178;4.450;2023-04-15T06:32:10;20.10;;;11.05;;
25936;SDS011;13733;51.178;4.450;2023-04-15T06:34:37;17.27;;;11.27;;
25936;SDS011;13733;51.178;4.450;2023-04-15T06:37:03;17.35;;;10.75;;
25936;SDS011;13733;51.178;4.450;2023-04-15T06:39:28;20.65;;;11.27;;
25936;SDS011;13733;51.178;4.450;2023-04-15T06:41:54;20.83;;;11.07;;
25936;SDS011;13733;51.178;4.450;2023-04-15T06:44:20;21.58;;;10.98;;
25936;SDS011;13733;51.178;4.450;2023-04-15T06:46:46;17.55;;;11.57;;
25936;SDS011;13733;51.178;4.450;2023-04-15T06:49:12;17.35;;;11.60;;
25936;SDS011;13733;51.178;4.450;2023-04-15T06:51:38;17.08;;;11.77;;
25936;SDS011;13733;51.178;4.450;2023-04-15T06:54:04;18.63;;;11.88;;
25936;SDS011;13733;51.178;4.450;2023-04-15T06:56:33;16.60;;;10.93;;
25936;SDS011;13733;51.178;4.450;2023-04-15T06:58:59;17.13;;;11.30;;
25936;SDS011;13733;51.178;4.450;2023-04-15T07:01:25;14.73;;;10.10;;
25936;SDS011;13733;51.178;4.450;2023-04-15T07:03:50;17.30;;;9.90;;
25936;SDS011;13733;51.178;4.450;2023-04-15T07:06:16;17.55;;;11.18;;
25936;SDS011;13733;51.178;4.450;2023-04-15T07:08:42;18.08;;;11.48;;
25936;SDS011;13733;51.178;4.450;2023-04-15T07:11:07;15.10;;;11.13;;
25936;SDS011;13733;51.178;4.450;2023-04-15T07:13:33;19.48;;;11.00;;
25936;SDS011;13733;51.178;4.450;2023-04-15T07:15:59;16.08;;;10.15;;
25936;SDS011;13733;51.178;4.450;2023-04-15T07:18:25;17.33;;;9.88;;
25936;SDS011;13733;51.178;4.450;2023-04-15T07:20:51;17.55;;;10.75;;
25936;SDS011;13733;51.178;4.450;2023-04-15T07:23:16;17.33;;;9.75;;
25936;SDS011;13733;51.178;4.450;2023-04-15T07:25:42;16.35;;;10.13;;
25936;SDS011;13733;51.178;4.450;2023-04-15T07:28:08;12.55;;;9.32;;
25936;SDS011;13733;51.178;4.450;2023-04-15T07:30:34;14.32;;;10.70;;
25936;SDS011;13733;51.178;4.450;2023-04-15T07:33:00;18.33;;;9.55;;
25936;SDS011;13733;51.178;4.450;2023-04-15T07:35:27;16.50;;;10.27;;
25936;SDS011;13733;51.178;4.450;2023-04-15T07:37:53;17.35;;;10.23;;
25936;SDS011;13733;51.178;4.450;2023-04-15T07:40:19;18.80;;;9.45;;
25936;SDS011;13733;51.178;4.450;2023-04-15T07:42:46;14.70;;;9.80;;
25936;SDS011;13733;51.178;4.450;2023-04-15T07:45:13;17.30;;;9.95;;
25936;SDS011;13733;51.178;4.450;2023-04-15T07:47:39;14.52;;;8.98;;
25936;SDS011;13733;51.178;4.450;2023-04-15T07:50:06;14.32;;;8.98;;
25936;SDS011;13733;51.178;4.450;2023-04-15T07:52:33;16.05;;;9.15;;
25936;SDS011;13733;51.178;4.450;2023-04-15T07:55:06;12.75;;;8.85;;
25936;SDS011;13733;51.178;4.450;2023-04-15T07:57:36;14.63;;;8.52;;
25936;SDS011;13733;51.178;4.450;2023-04-15T08:00:02;16.15;;;9.15;;
25936;SDS011;13733;51.178;4.450;2023-04-15T08:02:38;12.43;;;8.45;;
25936;SDS011;13733;51.178;4.450;2023-04-15T08:05:04;14.18;;;8.95;;
25936;SDS011;13733;51.178;4.450;2023-04-15T08:07:31;11.88;;;8.05;;
25936;SDS011;13733;51.178;4.450;2023-04-15T08:09:57;13.63;;;8.27;;
25936;SDS011;13733;51.178;4.450;2023-04-15T08:12:23;16.88;;;8.60;;
25936;SDS011;13733;51.178;4.450;2023-04-15T08:14:49;15.27;;;8.52;;
25936;SDS011;13733;51.178;4.450;2023-04-15T08:17:16;13.48;;;8.20;;
25936;SDS011;13733;51.178;4.450;2023-04-15T08:19:41;13.48;;;8.70;;
25936;SDS011;13733;51.178;4.450;2023-04-15T08:22:07;14.23;;;8.32;;
25936;SDS011;13733;51.178;4.450;2023-04-15T08:24:34;12.27;;;7.63;;
25936;SDS011;13733;51.178;4.450;2023-04-15T08:26:59;12.15;;;7.97;;
25936;SDS011;13733;51.178;4.450;2023-04-15T08:29:28;13.10;;;8.32;;
25936;SDS011;13733;51.178;4.450;2023-04-15T08:31:54;12.38;;;7.65;;
25936;SDS011;13733;51.178;4.450;2023-04-15T08:34:20;15.63;;;8.60;;
25936;SDS011;13733;51.178;4.450;2023-04-15T08:36:46;11.68;;;8.15;;
25936;SDS011;13733;51.178;4.450;2023-04-15T08:39:12;8.10;;;6.88;;
25936;SDS011;13733;51.178;4.450;2023-04-15T08:41:48;10.52;;;7.25;;
25936;SDS011;13733;51.178;4.450;2023-04-15T08:44:20;12.55;;;7.57;;
25936;SDS011;13733;51.178;4.450;2023-04-15T08:46:48;9.35;;;7.40;;
25936;SDS011;13733;51.178;4.450;2023-04-15T08:49:14;11.93;;;8.07;;
25936;SDS011;13733;51.178;4.450;2023-04-15T08:51:41;9.45;;;7.47;;
25936;SDS011;13733;51.178;4.450;2023-04-15T08:54:08;9.80;;;7.10;;
25936;SDS011;13733;51.178;4.450;2023-04-15T08:56:34;10.82;;;7.57;;
25936;SDS011;13733;51.178;4.450;2023-04-15T08:59:01;11.00;;;7.38;;
25936;SDS011;13733;51.178;4.450;2023-04-15T09:01:28;10.95;;;6.95;;
25936;SDS011;13733;51.178;4.450;2023-04-15T09:03:54;10.60;;;7.60;;
25936;SDS011;13733;51.178;4.450;2023-04-15T09:06:21;10.25;;;6.95;;
25936;SDS011;13733;51.178;4.450;2023-04-15T09:08:48;9.55;;;6.78;;
25936;SDS011;13733;51.178;4.450;2023-04-15T09:11:14;8.55;;;6.70;;
25936;SDS011;13733;51.178;4.450;2023-04-15T09:13:42;10.13;;;6.10;;
25936;SDS011;13733;51.178;4.450;2023-04-15T09:16:08;8.80;;;6.53;;
25936;SDS011;13733;51.178;4.450;2023-04-15T09:18:35;8.13;;;6.20;;
25936;SDS011;13733;51.178;4.450;2023-04-15T09:21:06;11.05;;;6.35;;
25936;SDS011;13733;51.178;4.450;2023-04-15T09:23:35;9.68;;;6.00;;
25936;SDS011;13733;51.178;4.450;2023-04-15T09:26:02;8.38;;;5.97;;
25936;SDS011;13733;51.178;4.450;2023-04-15T09:28:30;7.97;;;5.55;;
25936;SDS011;13733;51.178;4.450;2023-04-15T09:30:56;8.98;;;5.38;;
25936;SDS011;13733;51.178;4.450;2023-04-15T09:33:24;7.65;;;5.28;;
25936;SDS011;13733;51.178;4.450;2023-04-15T09:36:04;6.47;;;5.10;;
25936;SDS011;13733;51.178;4.450;2023-04-15T09:38:31;9.20;;;5.40;;
25936;SDS011;13733;51.178;4.450;2023-04-15T09:40:57;8.77;;;4.90;;
25936;SDS011;13733;51.178;4.450;2023-04-15T09:43:36;9.85;;;4.78;;
25936;SDS011;13733;51.178;4.450;2023-04-15T09:46:07;6.63;;;4.38;;
25936;SDS011;13733;51.178;4.450;2023-04-15T09:48:36;6.72;;;4.57;;
25936;SDS011;13733;51.178;4.450;2023-04-15T09:51:03;8.48;;;4.70;;
25936;SDS011;13733;51.178;4.450;2023-04-15T09:53:34;6.65;;;4.18;;
25936;SDS011;13733;51.178;4.450;2023-04-15T09:56:01;5.32;;;4.57;;
25936;SDS011;13733;51.178;4.450;2023-04-15T09:58:31;8.45;;;5.05;;
25936;SDS011;13733;51.178;4.450;2023-04-15T10:00:59;5.50;;;3.80;;
25936;SDS011;13733;51.178;4.450;2023-04-15T10:03:30;7.85;;;4.20;;
25936;SDS011;13733;51.178;4.450;2023-04-15T10:05:58;6.97;;;4.20;;
25936;SDS011;13733;51.178;4.450;2023-04-15T10:08:26;7.57;;;4.55;;
25936;SDS011;13733;51.178;4.450;2023-04-15T10:10:57;7.05;;;4.40;;
25936;SDS011;13733;51.178;4.450;2023-04-15T10:13:24;5.50;;;4.53;;
25936;SDS011;13733;51.178;4.450;2023-04-15T10:16:06;6.97;;;4.70;;
25936;SDS011;13733;51.178;4.450;2023-04-15T10:18:37;7.10;;;5.40;;
25936;SDS011;13733;51.178;4.450;2023-04-15T10:21:09;6.72;;;4.82;;
25936;SDS011;13733;51.178;4.450;2023-04-15T10:23:41;3.90;;;3.22;;
25936;SDS011;13733;51.178;4.450;2023-04-15T10:26:07;6.28;;;3.92;;
25936;SDS011;13733;51.178;4.450;2023-04-15T10:28:35;4.47;;;3.40;;
25936;SDS011;13733;51.178;4.450;2023-04-15T10:31:01;5.50;;;3.72;;
25936;SDS011;13733;51.178;4.450;2023-04-15T10:33:29;5.50;;;4.10;;
25936;SDS011;13733;51.178;4.450;2023-04-15T10:35:55;6.63;;;4.63;;
25936;SDS011;13733;51.178;4.450;2023-04-15T10:38:37;5.55;;;4.15;;
25936;SDS011;13733;51.178;4.450;2023-04-15T10:44:00;6.05;;;4.32;;
25936;SDS011;13733;51.178;4.450;2023-04-15T10:49:45;6.63;;;3.90;;
25936;SDS011;13733;51.178;4.450;2023-04-15T10:51:56;7.72;;;3.67;;
25936;SDS011;13733;51.178;4.450;2023-04-15T10:57:08;4.65;;;3.50;;
25936;SDS011;13733;51.178;4.450;2023-04-15T11:08:17;6.15;;;4.57;;
25936;SDS011;13733;51.178;4.450;2023-04-15T11:13:21;6.05;;;4.35;;
25936;SDS011;13733;51.178;4.450;2023-04-15T11:15:49;5.68;;;4.13;;
25936;SDS011;13733;51.178;4.450;2023-04-15T11:20:50;4.47;;;3.53;;
25936;SDS011;13733;51.178;4.450;2023-04-15T11:23:19;5.82;;;4.00;;
25936;SDS011;13733;51.178;4.450;2023-04-15T11:26:15;3.83;;;3.25;;
25936;SDS011;13733;51.178;4.450;2023-04-15T11:28:44;3.75;;;3.20;;
25936;SDS011;13733;51.178;4.450;2023-04-15T11:31:14;4.72;;;3.00;;
25936;SDS011;13733;51.178;4.450;2023-04-15T11:33:55;7.47;;;3.80;;
25936;SDS011;13733;51.178;4.450;2023-04-15T11:36:23;7.45;;;3.92;;
25936;SDS011;13733;51.178;4.450;2023-04-15T11:38:58;6.82;;;3.25;;
25936;SDS011;13733;51.178;4.450;2023-04-15T11:41:24;3.45;;;2.30;;
25936;SDS011;13733;51.178;4.450;2023-04-15T11:43:50;4.10;;;2.58;;
25936;SDS011;13733;51.178;4.450;2023-04-15T11:46:16;3.30;;;2.47;;
25936;SDS011;13733;51.178;4.450;2023-04-15T11:48:43;3.95;;;2.92;;
25936;SDS011;13733;51.178;4.450;2023-04-15T11:51:10;4.28;;;3.20;;
25936;SDS011;13733;51.178;4.450;2023-04-15T11:53:47;7.72;;;3.15;;
25936;SDS011;13733;51.178;4.450;2023-04-15T11:58:43;4.93;;;3.17;;
25936;SDS011;13733;51.178;4.450;2023-04-15T12:01:10;4.32;;;3.00;;
25936;SDS011;13733;51.178;4.450;2023-04-15T12:03:43;4.80;;;3.42;;
25936;SDS011;13733;51.178;4.450;2023-04-15T12:06:12;5.22;;;3.40;;
25936;SDS011;13733;51.178;4.450;2023-04-15T12:08:48;6.10;;;3.70;;
25936;SDS011;13733;51.178;4.450;2023-04-15T12:16:29;7.90;;;3.60;;
25936;SDS011;13733;51.178;4.450;2023-04-15T12:19:01;4.63;;;3.80;;
25936;SDS011;13733;51.178;4.450;2023-04-15T12:21:32;4.45;;;3.30;;
25936;SDS011;13733;51.178;4.450;2023-04-15T12:24:01;5.05;;;3.30;;
25936;SDS011;13733;51.178;4.450;2023-04-15T12:26:30;6.35;;;3.10;;
25936;SDS011;13733;51.178;4.450;2023-04-15T12:29:03;5.47;;;3.22;;
25936;SDS011;13733;51.178;4.450;2023-04-15T12:31:31;3.95;;;2.63;;
25936;SDS011;13733;51.178;4.450;2023-04-15T12:33:57;6.38;;;3.13;;
25936;SDS011;13733;51.178;4.450;2023-04-15T12:36:24;4.45;;;3.00;;
25936;SDS011;13733;51.178;4.450;2023-04-15T12:38:50;5.70;;;2.65;;
25936;SDS011;13733;51.178;4.450;2023-04-15T12:41:16;3.70;;;2.45;;
25936;SDS011;13733;51.178;4.450;2023-04-15T12:43:45;5.00;;;2.85;;
25936;SDS011;13733;51.178;4.450;2023-04-15T12:46:11;5.68;;;2.92;;
25936;SDS011;13733;51.178;4.450;2023-04-15T12:48:40;5.60;;;2.80;;
25936;SDS011;13733;51.178;4.450;2023-04-15T12:51:05;4.30;;;2.33;;
25936;SDS011;13733;51.178;4.450;2023-04-15T12:53:31;5.65;;;2.45;;
25936;SDS011;13733;51.178;4.450;2023-04-15T12:55:57;4.15;;;2.08;;
25936;SDS011;13733;51.178;4.450;2023-04-15T12:58:24;5.10;;;2.30;;
25936;SDS011;13733;51.178;4.450;2023-04-15T13:00:50;5.38;;;2.67;;
25936;SDS011;13733;51.178;4.450;2023-04-15T13:03:16;4.32;;;2.33;;
25936;SDS011;13733;51.178;4.450;2023-04-15T13:05:41;5.47;;;2.53;;
25936;SDS011;13733;51.178;4.450;2023-04-15T13:08:07;3.75;;;2.20;;
25936;SDS011;13733;51.178;4.450;2023-04-15T13:10:34;6.88;;;2.78;;
25936;SDS011;13733;51.178;4.450;2023-04-15T13:15:29;4.40;;;2.63;;
25936;SDS011;13733;51.178;4.450;2023-04-15T13:17:55;6.35;;;2.60;;
25936;SDS011;13733;51.178;4.450;2023-04-15T13:20:20;3.80;;;2.20;;
25936;SDS011;13733;51.178;4.450;2023-04-15T13:22:46;5.25;;;2.00;;
25936;SDS011;13733;51.178;4.450;2023-04-15T13:25:12;2.67;;;1.60;;
25936;SDS011;13733;51.178;4.450;2023-04-15T13:27:37;5.88;;;1.58;;
25936;SDS011;13733;51.178;4.450;2023-04-15T13:30:04;2.83;;;1.20;;
25936;SDS011;13733;51.178;4.450;2023-04-15T13:32:30;3.60;;;1.30;;
25936;SDS011;13733;51.178;4.450;2023-04-15T13:34:56;2.45;;;1.58;;
25936;SDS011;13733;51.178;4.450;2023-04-15T13:37:25;3.05;;;1.50;;
25936;SDS011;13733;51.178;4.450;2023-04-15T13:39:52;2.42;;;1.30;;
25936;SDS011;13733;51.178;4.450;2023-04-15T13:42:18;4.05;;;1.63;;
25936;SDS011;13733;51.178;4.450;2023-04-15T13:44:44;3.35;;;1.50;;
25936;SDS011;13733;51.178;4.450;2023-04-15T13:47:09;3.05;;;1.35;;
25936;SDS011;13733;51.178;4.450;2023-04-15T13:49:35;4.07;;;1.48;;
25936;SDS011;13733;51.178;4.450;2023-04-15T13:52:01;2.90;;;1.80;;
25936;SDS011;13733;51.178;4.450;2023-04-15T13:54:27;5.72;;;1.75;;
25936;SDS011;13733;51.178;4.450;2023-04-15T13:56:53;2.88;;;1.80;;
25936;SDS011;13733;51.178;4.450;2023-04-15T13:59:20;4.43;;;1.90;;
25936;SDS011;13733;51.178;4.450;2023-04-15T14:01:47;5.70;;;2.03;;
25936;SDS011;13733;51.178;4.450;2023-04-15T14:04:12;5.55;;;2.20;;
25936;SDS011;13733;51.178;4.450;2023-04-15T14:06:38;4.70;;;1.77;;
25936;SDS011;13733;51.178;4.450;2023-04-15T14:09:04;4.72;;;2.33;;
25936;SDS011;13733;51.178;4.450;2023-04-15T14:11:30;3.60;;;1.98;;
25936;SDS011;13733;51.178;4.450;2023-04-15T14:13:55;4.65;;;2.33;;
25936;SDS011;13733;51.178;4.450;2023-04-15T14:16:21;4.47;;;2.35;;
25936;SDS011;13733;51.178;4.450;2023-04-15T14:18:47;6.35;;;2.78;;
25936;SDS011;13733;51.178;4.450;2023-04-15T14:21:12;3.40;;;1.95;;
25936;SDS011;13733;51.178;4.450;2023-04-15T14:23:38;4.90;;;2.30;;
25936;SDS011;13733;51.178;4.450;2023-04-15T14:26:05;3.60;;;2.40;;
25936;SDS011;13733;51.178;4.450;2023-04-15T14:28:30;3.53;;;2.38;;
25936;SDS011;13733;51.178;4.450;2023-04-15T14:30:56;3.35;;;2.70;;
25936;SDS011;13733;51.178;4.450;2023-04-15T14:33:22;6.07;;;2.70;;
25936;SDS011;13733;51.178;4.450;2023-04-15T14:35:48;6.00;;;2.45;;
25936;SDS011;13733;51.178;4.450;2023-04-15T14:38:15;5.90;;;2.78;;
25936;SDS011;13733;51.178;4.450;2023-04-15T14:40:40;3.55;;;2.67;;
25936;SDS011;13733;51.178;4.450;2023-04-15T14:43:06;3.58;;;2.50;;
25936;SDS011;13733;51.178;4.450;2023-04-15T14:45:32;6.13;;;2.60;;
25936;SDS011;13733;51.178;4.450;2023-04-15T14:47:58;4.07;;;2.00;;
25936;SDS011;13733;51.178;4.450;2023-04-15T14:50:23;5.78;;;2.08;;
25936;SDS011;13733;51.178;4.450;2023-04-15T14:52:49;6.10;;;2.60;;
25936;SDS011;13733;51.178;4.450;2023-04-15T14:55:15;7.10;;;2.63;;
25936;SDS011;13733;51.178;4.450;2023-04-15T14:57:41;4.10;;;2.03;;
25936;SDS011;13733;51.178;4.450;2023-04-15T15:00:07;6.70;;;2.00;;
25936;SDS011;13733;51.178;4.450;2023-04-15T15:02:34;4.28;;;2.00;;
25936;SDS011;13733;51.178;4.450;2023-04-15T15:05:00;2.80;;;1.90;;
25936;SDS011;13733;51.178;4.450;2023-04-15T15:07:26;3.72;;;1.90;;
25936;SDS011;13733;51.178;4.450;2023-04-15T15:09:52;3.20;;;1.90;;
25936;SDS011;13733;51.178;4.450;2023-04-15T15:12:18;3.40;;;2.15;;